Time;durP1;ratioP1;P1;durP2;ratioP2;P2;SDS_P1;SDS_P2;PMS_P1;PMS_P2;Temp;Humidity;BMP_temperature;BMP_pressure;BME280_temperature;BME280_humidity;BME280_pressure;Samples;Min_cycle;Max_cycle;Signal;HPM_P1;HPM_P2
2021/11/29 03:46:36;;;;;;;0.98;0.98;;;;;;;10.18;92.53;92247.31;833538;71;32708;-80
2021/11/29 05:16:08;;;;;;;1.02;1.02;;;;;;;10.84;82.01;92245.72;827838;71;29742;-78
2021/11/29 05:31:08;;;;;;;1.15;1.15;;;;;;;10.98;81.40;92247.31;826943;71;30305;-77
2021/11/29 05:46:09;;;;;;;1.70;1.60;;;;;;;10.99;80.73;92254.09;828212;71;29728;-76
2021/11/29 06:01:09;;;;;;;2.40;2.17;;;;;;;11.00;80.82;92231.23;828694;71;29847;-76
2021/11/29 06:16:09;;;;;;;4.95;4.45;;;;;;;11.05;81.34;92257.20;829074;71;30210;-77
2021/11/29 06:31:16;;;;;;;3.05;2.80;;;;;;;11.11;82.14;92265.02;827324;71;33302;-78
2021/11/29 06:46:08;;;;;;;5.67;4.75;;;;;;;11.00;81.89;92323.82;828157;71;29747;-78
2021/11/29 07:01:15;;;;;;;9.73;6.65;;;;;;;10.76;84.32;92349.73;827094;71;32751;-76
2021/11/29 07:16:09;;;;;;;7.42;5.80;;;;;;;10.61;86.13;92369.64;833662;71;30296;-75
2021/11/29 07:31:08;;;;;;;6.60;5.37;;;;;;;10.59;86.94;92356.67;827028;71;29791;-75
2021/11/29 07:46:15;;;;;;;6.87;5.70;;;;;;;10.51;88.13;92368.09;828245;71;33478;-77
2021/11/29 08:01:10;;;;;;;7.05;6.20;;;;;;;10.73;88.82;92384.53;833795;71;30447;-77
2021/11/29 08:16:14;;;;;;;10.80;8.40;;;;;;;10.74;89.56;92357.18;818213;70;32826;-77
2021/11/29 08:31:09;;;;;;;3.62;2.12;;;;;;;10.33;84.11;92516.52;829620;71;30310;-78
2021/11/29 08:46:09;;;;;;;2.02;1.50;;;;;;;9.12;80.96;92604.06;827650;71;30027;-77
2021/11/29 09:16:11;;;;;;;2.10;2.00;;;;;;;8.40;81.12;92673.52;833141;71;30594;-77
2021/11/29 09:31:16;;;;;;;2.52;2.33;;;;;;;8.14;81.04;92678.91;828493;71;32761;-77
2021/11/29 09:46:09;;;;;;;1.52;1.42;;;;;;;8.08;81.79;92664.50;818930;71;29695;-78
2021/11/29 10:01:09;;;;;;;2.90;2.60;;;;;;;8.12;82.90;92649.18;828000;71;29654;-77
2021/11/29 10:16:09;;;;;;;2.98;2.77;;;;;;;8.11;83.06;92661.25;827804;71;30828;-79
2021/11/29 10:31:24;;;;;;;2.72;2.52;;;;;;;8.07;82.30;92629.80;820932;71;32766;-76
2021/11/29 10:46:33;;;;;;;3.20;2.80;;;;;;;8.01;82.49;92614.09;828014;71;30229;-78
2021/11/29 11:01:10;;;;;;;4.97;3.20;;;;;;;8.04;82.12;92618.66;827960;71;30275;-78
2021/11/29 11:16:21;;;;;;;3.80;3.50;;;;;;;8.00;82.54;92630.83;826191;71;30244;-77
2021/11/29 11:31:11;;;;;;;18.00;13.25;;;;;;;8.22;82.09;92608.31;826108;71;30179;-79
2021/11/29 11:46:14;;;;;;;5.03;4.30;;;;;;;8.80;81.25;92623.41;823248;70;32769;-76
2021/11/29 12:01:15;;;;;;;4.67;4.20;;;;;;;8.49;80.92;92661.72;827580;71;30543;-77
2021/11/29 12:16:16;;;;;;;2.67;2.47;;;;;;;8.27;80.83;92684.42;825351;70;33305;-80
2021/11/29 12:31:37;;;;;;;1.65;1.55;;;;;;;8.12;81.17;92651.80;813023;70;29846;-78
2021/11/29 12:46:23;;;;;;;2.50;2.30;;;;;;;8.00;81.52;92638.11;826481;70;33297;-77
2021/11/29 13:01:18;;;;;;;3.12;2.92;;;;;;;8.28;81.61;92627.73;813147;70;32697;-78
2021/11/29 13:16:12;;;;;;;5.42;4.10;;;;;;;7.84;79.58;92648.89;827822;71;30334;-79
2021/11/29 13:31:09;;;;;;;4.00;3.70;;;;;;;7.41;80.36;92640.73;823013;71;29436;-78
2021/11/29 13:46:16;;;;;;;4.05;3.65;;;;;;;7.30;80.93;92652.57;823799;71;31238;-76
2021/11/29 14:01:14;;;;;;;4.50;3.80;;;;;;;7.15;80.41;92655.16;826166;71;30198;-76
2021/11/29 14:16:17;;;;;;;5.65;5.12;;;;;;;7.30;81.70;92670.83;837567;70;29945;-79
2021/11/29 14:31:14;;;;;;;5.60;4.75;;;;;;;7.47;81.18;92700.03;828167;71;32174;-76
2021/11/29 14:46:26;;;;;;;7.80;7.08;;;;;;;7.38;80.03;92706.05;829668;70;33176;-78
2021/11/29 16:17:08;;;;;;;;;;;;;;;;;;;;;
2021/11/29 16:31:34;;;;;;;8.50;7.30;;;;;;;5.50;85.31;92820.48;823242;70;32870;-80
2021/11/29 16:46:21;;;;;;;11.20;9.00;;;;;;;5.52;84.80;92808.48;828182;71;33475;-79
2021/11/29 17:01:09;;;;;;;20.70;12.65;;;;;;;5.47;84.68;92813.25;828916;71;29711;-82
2021/11/29 17:31:30;;;;;;;15.48;12.65;;;;;;;5.59;85.44;92832.98;825028;71;32757;-79
2021/11/29 17:46:26;;;;;;;18.32;14.25;;;;;;;5.76;85.14;92839.38;834216;71;32727;-78
2021/11/29 18:31:42;;;;;;;10.72;9.60;;;;;;;5.74;83.93;92810.29;775472;75;33878;-80
2021/11/29 18:46:53;;;;;;;14.65;12.53;;;;;;;5.56;84.72;92777.67;780091;75;32977;-77
2021/11/29 19:01:31;;;;;;;18.52;15.05;;;;;;;5.59;85.16;92768.49;822755;71;32838;-81
2021/11/29 19:16:17;;;;;;;26.95;17.52;;;;;;;5.59;85.06;92804.91;827948;71;32789;-80
2021/11/29 19:31:42;;;;;;;24.70;18.50;;;;;;;5.49;85.47;92772.65;836429;70;32872;-80
2021/11/29 20:31:24;;;;;;;43.65;28.47;;;;;;;5.84;85.55;92808.73;825853;71;32748;-80
2021/11/29 20:46:42;;;;;;;43.85;30.55;;;;;;;5.92;85.88;92837.14;820675;71;32893;-77
2021/11/29 21:46:31;;;;;;;47.10;29.45;;;;;;;5.24;87.98;92836.45;834256;71;32793;-81
2021/11/29 22:16:23;;;;;;;38.55;24.43;;;;;;;5.39;89.47;92802.27;834740;71;32719;-79
2021/11/29 22:31:18;;;;;;;;;;;;;;;;;;;;;
2021/11/29 22:46:09;;;;;;;33.85;21.45;;;;;;;5.27;89.08;92767.73;829362;70;29289;-79
2021/11/29 23:01:25;;;;;;;41.05;24.98;;;;;;;5.52;88.38;92778.56;835655;71;32825;-79
2021/11/29 23:16:09;;;;;;;44.42;26.97;;;;;;;5.35;88.41;92764.41;827335;71;30225;-77
2021/11/29 23:31:16;;;;;;;42.13;26.52;;;;;;;5.55;89.06;92748.05;826954;71;29518;-79
2021/11/29 23:46:17;;;;;;;37.08;23.07;;;;;;;5.76;88.58;92739.20;827753;71;31370;-77
